Time;durP1;ratioP1;P1;durP2;ratioP2;P2;SDS_P1;SDS_P2;PMS_P1;PMS_P2;Temp;Humidity;BMP_temperature;BMP_pressure;BME280_temperature;BME280_humidity;BME280_pressure;Samples;Min_cycle;Max_cycle;Signal;HPM_P1;HPM_P2
2021/12/06 00:01:01;;;;;;;45.67;32.95;;;2.70;99.90;;;;;;5030020;28;20512;-62
2021/12/06 00:03:46;;;;;;;40.88;30.23;;;2.70;99.90;;;;;;5010136;28;20145;-62
2021/12/06 00:06:13;;;;;;;43.10;31.85;;;2.60;99.90;;;;;;5028050;28;20084;-62
2021/12/06 00:08:40;;;;;;;50.10;37.38;;;2.60;99.90;;;;;;5027437;28;20045;-62
2021/12/06 00:11:08;;;;;;;45.67;33.90;;;2.60;99.90;;;;;;5029712;28;20091;-62
2021/12/06 00:13:37;;;;;;;46.28;32.05;;;2.60;99.90;;;;;;5028770;28;20063;-62
2021/12/06 00:16:08;;;;;;;41.25;29.90;;;2.60;99.90;;;;;;5010028;28;20416;-62
2021/12/06 00:18:35;;;;;;;45.33;31.85;;;2.60;99.90;;;;;;5028133;28;20124;-62
2021/12/06 00:21:02;;;;;;;50.05;35.60;;;2.60;99.90;;;;;;5012479;28;20063;-62
2021/12/06 00:23:28;;;;;;;43.45;30.75;;;2.60;99.90;;;;;;5028953;28;20571;-62
2021/12/06 00:25:55;;;;;;;46.53;33.35;;;2.50;99.90;;;;;;5011012;28;20491;-62
2021/12/06 00:28:23;;;;;;;56.45;38.28;;;2.60;99.90;;;;;;5010257;28;20088;-62
2021/12/06 00:30:50;;;;;;;45.50;33.17;;;2.60;99.90;;;;;;5013169;28;20056;-62
2021/12/06 00:33:16;;;;;;;50.03;34.40;;;2.60;99.90;;;;;;5010794;28;20072;-62
2021/12/06 00:35:42;;;;;;;48.38;32.85;;;2.50;99.90;;;;;;4995012;28;20519;-62
2021/12/06 00:38:09;;;;;;;52.30;35.92;;;2.50;99.90;;;;;;5012805;28;20045;-63
2021/12/06 00:40:41;;;;;;;48.00;33.97;;;2.60;99.90;;;;;;4978093;28;20049;-62
2021/12/06 00:43:08;;;;;;;50.58;34.17;;;2.60;99.90;;;;;;5027730;28;20116;-62
2021/12/06 00:45:35;;;;;;;53.58;33.42;;;2.60;99.90;;;;;;5011046;28;20057;-62
2021/12/06 00:48:02;;;;;;;52.05;33.90;;;2.60;99.90;;;;;;5029724;28;20052;-62
2021/12/06 00:50:32;;;;;;;47.28;32.75;;;2.60;99.90;;;;;;5012286;28;20049;-62
2021/12/06 00:52:58;;;;;;;51.65;34.72;;;2.60;99.90;;;;;;5034751;28;20373;-47
2021/12/06 00:55:25;;;;;;;51.15;33.25;;;2.60;99.90;;;;;;5032233;28;20512;-48
2021/12/06 00:57:53;;;;;;;52.00;33.92;;;2.60;99.90;;;;;;5016444;28;20393;-62
2021/12/06 01:00:47;;;;;;;50.08;34.10;;;2.60;99.90;;;;;;4998911;28;20561;-51
2021/12/06 01:03:18;;;;;;;49.72;33.47;;;2.60;99.90;;;;;;5014234;28;20049;-52
2021/12/06 01:05:46;;;;;;;44.70;31.83;;;2.60;99.90;;;;;;4998326;28;20448;-52
2021/12/06 01:08:12;;;;;;;50.22;33.28;;;2.60;99.90;;;;;;5012724;28;20045;-52
2021/12/06 01:10:40;;;;;;;50.67;33.78;;;2.60;99.90;;;;;;5013865;28;21081;-51
2021/12/06 01:13:07;;;;;;;52.03;34.17;;;2.60;99.90;;;;;;5031440;28;20523;-52
2021/12/06 01:15:36;;;;;;;47.13;31.35;;;2.60;99.90;;;;;;5029293;28;20065;-47
2021/12/06 01:18:05;;;;;;;51.72;34.15;;;2.60;99.90;;;;;;5013417;28;20124;-48
2021/12/06 01:20:39;;;;;;;49.97;33.53;;;2.60;99.90;;;;;;5013959;28;20077;-52
2021/12/06 01:23:09;;;;;;;51.33;33.58;;;2.70;99.90;;;;;;5014012;28;20088;-50
2021/12/06 01:25:55;;;;;;;50.38;33.80;;;2.60;99.90;;;;;;5013514;28;20049;-47
2021/12/06 01:31:07;;;;;;;53.08;33.20;;;2.70;99.90;;;;;;5013668;28;20123;-62
2021/12/06 01:41:37;;;;;;;53.33;34.95;;;2.60;99.90;;;;;;4996483;28;20132;-62
2021/12/06 01:44:25;;;;;;;53.00;34.08;;;2.70;99.90;;;;;;4997970;28;20435;-62
2021/12/06 01:47:33;;;;;;;50.72;32.80;;;2.60;99.90;;;;;;5009359;28;20446;-62
2021/12/06 01:50:18;;;;;;;51.00;33.20;;;2.60;99.90;;;;;;4988335;28;20499;-47
2021/12/06 01:52:56;;;;;;;50.92;33.63;;;2.60;99.90;;;;;;4994131;28;20124;-48
2021/12/06 01:55:27;;;;;;;58.83;35.92;;;2.70;99.90;;;;;;5025657;28;20044;-49
2021/12/06 01:57:54;;;;;;;47.53;33.03;;;2.70;99.90;;;;;;5011760;28;20053;-48
2021/12/06 02:00:41;;;;;;;53.97;34.10;;;2.70;99.90;;;;;;4997081;28;20304;-48
2021/12/06 02:03:13;;;;;;;52.33;33.78;;;2.70;99.90;;;;;;5013765;28;20439;-62
2021/12/06 02:05:45;;;;;;;55.22;35.00;;;2.70;99.90;;;;;;5030099;28;20077;-62
2021/12/06 02:08:14;;;;;;;53.25;35.15;;;2.70;99.90;;;;;;5029121;28;20045;-51
2021/12/06 02:10:41;;;;;;;54.97;35.25;;;2.70;99.90;;;;;;5028766;28;20057;-62
2021/12/06 02:13:11;;;;;;;57.65;36.42;;;2.70;99.90;;;;;;5012929;28;20060;-62
2021/12/06 02:18:13;;;;;;;56.38;35.55;;;2.70;99.90;;;;;;5024123;28;20582;-48
2021/12/06 02:20:58;;;;;;;56.17;37.15;;;2.70;99.90;;;;;;5018464;28;20581;-49
2021/12/06 02:23:25;;;;;;;52.30;35.08;;;2.70;99.90;;;;;;4983504;28;20050;-48
2021/12/06 02:25:51;;;;;;;53.97;34.78;;;2.70;99.90;;;;;;5030148;28;20514;-62
2021/12/06 02:28:17;;;;;;;56.70;36.58;;;2.70;99.90;;;;;;5013301;28;20535;-47
2021/12/06 02:30:43;;;;;;;54.35;35.92;;;2.70;99.90;;;;;;4997456;28;20448;-52
2021/12/06 02:33:10;;;;;;;54.15;34.42;;;2.70;99.90;;;;;;5029844;28;20068;-62
2021/12/06 02:35:37;;;;;;;52.53;34.53;;;2.70;99.90;;;;;;5029088;28;20138;-62
2021/12/06 02:38:07;;;;;;;53.65;34.90;;;2.70;99.90;;;;;;5012175;28;20160;-51
2021/12/06 02:40:38;;;;;;;54.00;32.95;;;2.70;99.90;;;;;;5012973;28;20184;-62
2021/12/06 02:43:08;;;;;;;49.63;32.65;;;2.70;99.90;;;;;;4996172;28;20052;-62
2021/12/06 02:45:34;;;;;;;56.22;36.55;;;2.70;99.90;;;;;;5011931;28;20065;-62
2021/12/06 02:48:04;;;;;;;54.45;34.92;;;2.70;99.90;;;;;;4998716;28;20493;-62
2021/12/06 02:50:36;;;;;;;56.47;36.90;;;2.70;99.90;;;;;;4996760;28;20092;-49
2021/12/06 02:53:04;;;;;;;59.33;35.53;;;2.70;99.90;;;;;;4999445;28;20044;-47
2021/12/06 02:55:34;;;;;;;59.20;37.13;;;2.70;99.90;;;;;;5011292;28;20049;-47
2021/12/06 02:58:32;;;;;;;60.55;37.20;;;2.70;99.90;;;;;;5021060;28;20529;-50
2021/12/06 03:00:59;;;;;;;57.35;36.25;;;2.70;99.90;;;;;;5011631;28;20045;-62
2021/12/06 03:03:25;;;;;;;55.95;35.58;;;2.70;99.90;;;;;;5030199;28;20099;-62
2021/12/06 03:05:52;;;;;;;58.50;36.47;;;2.70;99.90;;;;;;5010078;28;20111;-51
2021/12/06 03:08:46;;;;;;;55.70;35.40;;;2.80;99.90;;;;;;4996236;28;20049;-49
2021/12/06 03:11:24;;;;;;;48.63;32.75;;;2.70;99.90;;;;;;5012554;28;20072;-62
2021/12/06 03:13:50;;;;;;;54.15;34.58;;;2.70;99.90;;;;;;5010383;28;20049;-62
2021/12/06 03:16:18;;;;;;;52.28;32.95;;;2.70;99.90;;;;;;4995777;28;20072;-47
2021/12/06 03:18:46;;;;;;;55.15;32.42;;;2.70;99.90;;;;;;4978041;28;20085;-62
2021/12/06 03:21:14;;;;;;;58.95;36.47;;;2.70;99.90;;;;;;5023618;28;20049;-62
2021/12/06 03:23:40;;;;;;;55.92;35.00;;;2.70;99.90;;;;;;5028857;28;20057;-62
2021/12/06 03:26:07;;;;;;;57.40;35.30;;;2.70;99.90;;;;;;5011025;28;20058;-62
2021/12/06 03:28:41;;;;;;;59.05;35.28;;;2.70;99.90;;;;;;5010991;28;20456;-62
2021/12/06 03:31:11;;;;;;;56.08;34.45;;;2.70;99.90;;;;;;5011744;28;20504;-62
2021/12/06 03:33:39;;;;;;;63.47;36.20;;;2.70;99.90;;;;;;5010916;28;20045;-47
2021/12/06 03:36:07;;;;;;;63.78;35.15;;;2.60;99.90;;;;;;5011972;28;20045;-48
2021/12/06 03:38:36;;;;;;;61.55;35.72;;;2.70;99.90;;;;;;5012262;28;20539;-62
2021/12/06 03:41:03;;;;;;;66.82;37.67;;;2.70;99.90;;;;;;5028574;28;20052;-62
2021/12/06 03:43:32;;;;;;;59.92;35.22;;;2.70;99.90;;;;;;5011740;28;20053;-62
2021/12/06 03:45:59;;;;;;;60.80;35.95;;;2.70;99.90;;;;;;4994588;28;20327;-62
2021/12/06 03:48:25;;;;;;;60.63;34.45;;;2.60;99.90;;;;;;5012555;28;20096;-50
2021/12/06 03:50:51;;;;;;;68.47;37.92;;;2.70;99.90;;;;;;5028732;28;20128;-51
2021/12/06 03:53:18;;;;;;;61.78;36.17;;;2.70;99.90;;;;;;4997068;28;20045;-50
2021/12/06 03:55:44;;;;;;;71.20;38.45;;;2.70;99.90;;;;;;4997287;28;20046;-48
2021/12/06 03:58:10;;;;;;;58.10;34.72;;;2.70;99.90;;;;;;4996530;28;20045;-46
2021/12/06 04:00:37;;;;;;;59.63;33.85;;;2.80;99.90;;;;;;5028906;28;20496;-48
2021/12/06 04:03:04;;;;;;;64.80;36.95;;;2.70;99.90;;;;;;4995064;28;20115;-46
2021/12/06 04:05:32;;;;;;;61.40;35.13;;;2.70;99.90;;;;;;4999644;28;20164;-62
2021/12/06 04:07:58;;;;;;;63.67;37.13;;;2.70;99.90;;;;;;4996729;28;20554;-48
2021/12/06 04:10:26;;;;;;;66.25;36.53;;;2.70;99.90;;;;;;4994620;28;20524;-49
2021/12/06 04:12:57;;;;;;;68.05;34.95;;;2.70;99.90;;;;;;5011201;28;20054;-51
2021/12/06 04:15:24;;;;;;;64.88;37.33;;;2.70;99.90;;;;;;5009327;28;20049;-51
2021/12/06 04:17:51;;;;;;;71.93;37.97;;;2.70;99.90;;;;;;4975127;28;20077;-49
2021/12/06 04:20:18;;;;;;;71.53;37.67;;;2.70;99.90;;;;;;5007622;28;20389;-49
2021/12/06 04:22:45;;;;;;;73.55;40.25;;;2.70;99.90;;;;;;4996118;28;20053;-61
2021/12/06 04:25:15;;;;;;;72.88;38.50;;;2.70;99.90;;;;;;4997076;28;20118;-62
2021/12/06 04:27:43;;;;;;;67.68;39.08;;;2.70;99.90;;;;;;5014726;28;20089;-62
2021/12/06 04:30:11;;;;;;;68.75;36.90;;;2.70;99.90;;;;;;5015044;28;20046;-62
2021/12/06 04:32:38;;;;;;;69.68;38.40;;;2.70;99.90;;;;;;5015053;28;20053;-62
2021/12/06 04:35:05;;;;;;;72.80;38.65;;;2.70;99.90;;;;;;4981734;28;20049;-62
2021/12/06 04:37:31;;;;;;;72.97;37.33;;;2.70;99.90;;;;;;5016195;28;20049;-62
2021/12/06 04:39:58;;;;;;;69.63;36.88;;;2.80;99.90;;;;;;4965352;28;20052;-49
2021/12/06 04:42:24;;;;;;;66.78;36.92;;;2.70;99.90;;;;;;4998655;28;20459;-47
2021/12/06 04:44:50;;;;;;;57.53;31.85;;;2.70;99.90;;;;;;5014839;28;20524;-47
2021/12/06 04:47:17;;;;;;;63.85;35.85;;;2.70;99.90;;;;;;5015399;28;20152;-48
2021/12/06 04:49:43;;;;;;;63.13;34.70;;;2.70;99.90;;;;;;5014410;28;20645;-48
2021/12/06 04:52:13;;;;;;;59.80;33.95;;;2.70;99.90;;;;;;4984593;28;20051;-49
2021/12/06 04:54:43;;;;;;;60.67;34.72;;;2.70;99.90;;;;;;5031246;28;20478;-48
2021/12/06 04:57:25;;;;;;;58.35;33.97;;;2.70;99.90;;;;;;4998014;28;20049;-62
2021/12/06 04:59:59;;;;;;;59.65;34.33;;;2.70;99.90;;;;;;5033306;28;20133;-62
2021/12/06 05:02:30;;;;;;;57.63;33.45;;;2.70;99.90;;;;;;4996471;28;20585;-46
2021/12/06 05:05:03;;;;;;;64.32;35.53;;;2.70;99.90;;;;;;5014584;28;20034;-54
2021/12/06 05:07:38;;;;;;;62.75;34.17;;;2.70;99.90;;;;;;5015501;28;20057;-53
2021/12/06 05:10:07;;;;;;;63.08;35.25;;;2.70;99.90;;;;;;5007703;28;20068;-61
2021/12/06 05:12:34;;;;;;;74.63;39.75;;;2.60;99.90;;;;;;4962653;28;20057;-62
2021/12/06 05:15:01;;;;;;;66.45;36.15;;;2.60;99.90;;;;;;4994023;28;20061;-47
2021/12/06 05:17:29;;;;;;;77.93;38.10;;;2.60;99.90;;;;;;4992296;28;20129;-48
2021/12/06 05:19:56;;;;;;;76.15;39.80;;;2.70;99.90;;;;;;5006144;28;20532;-52
2021/12/06 05:22:24;;;;;;;75.80;37.80;;;2.60;99.90;;;;;;4993800;28;20497;-47
2021/12/06 05:24:51;;;;;;;79.85;38.60;;;2.60;99.90;;;;;;4992552;28;20049;-48
2021/12/06 05:27:26;;;;;;;83.13;40.03;;;2.70;99.90;;;;;;4977262;28;20416;-51
2021/12/06 05:29:59;;;;;;;70.40;36.50;;;2.70;99.90;;;;;;5010582;28;20079;-51
2021/12/06 05:32:28;;;;;;;72.80;38.20;;;2.70;99.90;;;;;;4961445;28;20060;-51
2021/12/06 05:35:02;;;;;;;74.30;38.78;;;2.70;99.90;;;;;;4992415;28;20058;-47
2021/12/06 05:37:30;;;;;;;70.82;37.72;;;2.70;99.90;;;;;;5011980;28;20045;-47
2021/12/06 05:39:56;;;;;;;75.88;39.22;;;2.70;99.90;;;;;;4976702;28;20084;-48
2021/12/06 05:42:24;;;;;;;72.15;37.75;;;2.70;99.90;;;;;;4977119;28;20045;-48
2021/12/06 05:44:50;;;;;;;76.97;35.83;;;2.70;99.90;;;;;;4993282;28;20129;-48
2021/12/06 05:47:17;;;;;;;72.18;36.55;;;2.70;99.90;;;;;;4977268;28;20049;-51
2021/12/06 05:49:43;;;;;;;80.15;38.50;;;2.70;99.90;;;;;;5009807;28;20486;-62
2021/12/06 05:52:10;;;;;;;70.70;38.97;;;2.70;99.90;;;;;;4994704;28;20127;-49
2021/12/06 05:54:37;;;;;;;74.05;37.42;;;2.70;99.90;;;;;;5010205;28;20116;-62
2021/12/06 05:57:05;;;;;;;72.53;34.40;;;2.70;99.90;;;;;;4993774;28;20050;-48
2021/12/06 05:59:32;;;;;;;80.05;38.40;;;2.70;99.90;;;;;;5010210;28;20052;-62
2021/12/06 06:01:58;;;;;;;85.72;42.22;;;2.70;99.90;;;;;;5008838;28;20096;-62
2021/12/06 06:04:26;;;;;;;79.45;39.97;;;2.70;99.90;;;;;;4960957;28;20057;-62
2021/12/06 06:06:53;;;;;;;82.82;37.97;;;2.70;99.90;;;;;;4992548;28;20578;-62
2021/12/06 06:09:20;;;;;;;74.63;38.92;;;2.70;99.90;;;;;;5009143;28;20054;-47
2021/12/06 06:11:46;;;;;;;74.78;36.58;;;2.60;99.90;;;;;;5010152;28;20152;-48
2021/12/06 06:14:12;;;;;;;72.15;36.70;;;2.70;99.90;;;;;;4994221;28;20045;-48
2021/12/06 06:16:47;;;;;;;74.05;36.15;;;2.60;99.90;;;;;;5011451;28;20074;-62
2021/12/06 06:19:15;;;;;;;67.88;36.78;;;2.70;99.90;;;;;;4961892;28;20049;-62
2021/12/06 06:21:42;;;;;;;71.55;35.10;;;2.70;99.90;;;;;;4991316;28;20045;-62
2021/12/06 06:24:08;;;;;;;82.22;38.40;;;2.60;99.90;;;;;;5011486;28;20100;-62
2021/12/06 06:26:34;;;;;;;74.68;39.75;;;2.70;99.90;;;;;;5012136;28;20119;-62
2021/12/06 06:29:00;;;;;;;89.05;40.53;;;2.70;99.90;;;;;;5012282;28;20054;-62
2021/12/06 06:31:26;;;;;;;81.65;40.55;;;2.70;99.90;;;;;;4976430;28;20057;-62
2021/12/06 06:33:52;;;;;;;84.97;40.42;;;2.70;99.90;;;;;;4993520;28;20054;-62
2021/12/06 06:36:19;;;;;;;80.07;38.65;;;2.70;99.90;;;;;;5012245;28;20093;-62
2021/12/06 06:38:45;;;;;;;75.60;37.47;;;2.70;99.90;;;;;;4976189;28;20473;-62
2021/12/06 06:41:11;;;;;;;83.63;37.53;;;2.70;99.90;;;;;;5010848;28;20041;-62
2021/12/06 06:43:37;;;;;;;84.78;41.17;;;2.70;99.90;;;;;;5010002;28;20513;-62
2021/12/06 06:46:05;;;;;;;85.93;38.83;;;2.70;99.90;;;;;;4992887;28;20042;-62
2021/12/06 06:48:31;;;;;;;86.75;41.50;;;2.70;99.90;;;;;;4992525;28;20401;-62
2021/12/06 06:50:58;;;;;;;81.47;39.70;;;2.70;99.90;;;;;;5013098;28;20050;-65
2021/12/06 06:53:24;;;;;;;79.43;39.65;;;2.70;99.90;;;;;;5011060;28;20462;-62
2021/12/06 06:55:50;;;;;;;71.45;37.30;;;2.70;99.90;;;;;;5015230;28;20045;-62
2021/12/06 06:58:16;;;;;;;67.68;34.55;;;2.70;99.90;;;;;;5010744;28;20543;-62
2021/12/06 07:00:42;;;;;;;73.65;37.70;;;2.70;99.90;;;;;;5010496;28;20183;-62
2021/12/06 07:03:09;;;;;;;77.63;40.13;;;2.70;99.90;;;;;;4998578;28;20489;-62
2021/12/06 07:05:36;;;;;;;79.85;38.22;;;2.70;99.90;;;;;;4973397;28;20046;-61
2021/12/06 07:08:03;;;;;;;79.45;40.13;;;2.70;99.90;;;;;;4994014;28;20172;-62
2021/12/06 07:10:29;;;;;;;75.97;39.38;;;2.60;99.90;;;;;;5010116;28;20064;-62
2021/12/06 07:12:56;;;;;;;78.50;39.05;;;2.60;99.90;;;;;;5012884;28;20451;-62
2021/12/06 07:15:33;;;;;;;72.22;38.05;;;2.60;99.90;;;;;;5021633;28;20791;-63
2021/12/06 07:18:01;;;;;;;75.45;35.33;;;2.60;99.90;;;;;;5010195;28;20068;-62
2021/12/06 07:20:29;;;;;;;73.13;38.00;;;2.60;99.90;;;;;;4992349;28;20373;-62
2021/12/06 07:22:55;;;;;;;65.95;34.50;;;2.50;99.90;;;;;;5010230;28;20488;-62
2021/12/06 07:25:22;;;;;;;72.32;35.38;;;2.60;99.90;;;;;;4995168;28;20583;-62
2021/12/06 07:27:51;;;;;;;74.00;39.65;;;2.60;99.90;;;;;;4981480;28;20053;-62
2021/12/06 07:30:18;;;;;;;68.85;35.53;;;2.60;99.90;;;;;;5010752;28;20136;-61
2021/12/06 07:32:45;;;;;;;74.68;37.40;;;2.50;99.90;;;;;;4979948;28;20057;-62
2021/12/06 07:35:12;;;;;;;73.65;37.20;;;2.50;99.90;;;;;;5004794;28;20760;-62
2021/12/06 07:37:39;;;;;;;82.32;37.97;;;2.60;99.90;;;;;;4999459;28;20049;-61
2021/12/06 07:40:08;;;;;;;74.70;36.35;;;2.60;99.90;;;;;;4986931;28;20543;-64
2021/12/06 07:42:35;;;;;;;73.72;36.15;;;2.50;99.90;;;;;;4995191;28;20491;-62
2021/12/06 07:45:02;;;;;;;74.90;35.22;;;2.50;99.90;;;;;;4980638;28;20060;-61
2021/12/06 07:47:29;;;;;;;62.20;34.78;;;2.50;99.90;;;;;;5008936;28;20069;-51
2021/12/06 07:49:55;;;;;;;68.30;33.92;;;2.50;99.90;;;;;;4982775;28;20045;-62
2021/12/06 07:52:21;;;;;;;63.90;33.33;;;2.50;99.90;;;;;;4979760;28;20049;-50
2021/12/06 07:54:48;;;;;;;63.67;34.03;;;2.40;99.90;;;;;;4983811;28;20053;-53
2021/12/06 07:57:14;;;;;;;67.78;33.92;;;2.40;99.90;;;;;;4989334;28;20125;-51
2021/12/06 07:59:40;;;;;;;60.80;34.63;;;2.40;99.90;;;;;;5016343;28;20050;-61
2021/12/06 08:02:08;;;;;;;71.50;35.97;;;2.50;99.90;;;;;;4992176;28;20069;-62
2021/12/06 08:04:35;;;;;;;61.53;30.48;;;2.50;99.90;;;;;;5009711;28;20459;-61
2021/12/06 08:07:02;;;;;;;65.50;34.40;;;2.50;99.90;;;;;;4994841;28;20133;-62
2021/12/06 08:09:28;;;;;;;65.07;32.83;;;2.40;99.90;;;;;;5012770;28;20644;-60
2021/12/06 08:11:54;;;;;;;63.63;34.65;;;2.30;99.90;;;;;;5017165;28;20049;-62
2021/12/06 08:14:20;;;;;;;74.75;38.80;;;2.40;99.90;;;;;;5048441;28;20179;-64
2021/12/06 08:16:46;;;;;;;65.65;33.75;;;2.40;99.90;;;;;;5018523;28;20089;-62
2021/12/06 08:19:13;;;;;;;65.05;32.72;;;2.40;99.90;;;;;;5016520;28;20052;-61
2021/12/06 08:21:40;;;;;;;80.15;44.13;;;2.40;99.90;;;;;;5016240;28;20099;-64
2021/12/06 08:24:07;;;;;;;56.88;31.33;;;2.60;99.90;;;;;;5020577;28;20050;-62
2021/12/06 08:26:36;;;;;;;55.53;30.45;;;2.60;99.90;;;;;;5010257;28;20045;-62
2021/12/06 08:29:06;;;;;;;56.13;29.52;;;2.40;99.90;;;;;;5011076;28;20515;-62
2021/12/06 08:31:37;;;;;;;52.28;29.23;;;2.30;99.90;;;;;;5028480;28;20065;-51
2021/12/06 08:34:03;;;;;;;55.00;28.73;;;2.30;99.90;;;;;;4994172;28;20056;-51
2021/12/06 08:36:30;;;;;;;56.53;30.52;;;2.20;99.90;;;;;;5010892;28;20174;-48
2021/12/06 08:38:58;;;;;;;58.13;30.15;;;2.20;99.90;;;;;;5028711;28;20053;-62
2021/12/06 08:41:28;;;;;;;61.28;30.88;;;2.20;99.90;;;;;;4999700;28;20455;-61
2021/12/06 08:43:56;;;;;;;66.25;33.90;;;2.30;99.90;;;;;;5004188;28;20045;-62
2021/12/06 08:46:27;;;;;;;66.68;32.30;;;2.30;99.90;;;;;;5028165;28;20059;-61
2021/12/06 08:48:54;;;;;;;66.45;33.78;;;2.30;99.90;;;;;;5028518;28;20084;-62
2021/12/06 08:51:32;;;;;;;71.32;36.50;;;2.30;99.90;;;;;;4996726;28;20103;-62
2021/12/06 08:54:00;;;;;;;87.45;43.20;;;2.20;99.90;;;;;;5019005;28;20064;-51
2021/12/06 08:56:27;;;;;;;82.03;39.03;;;2.20;99.90;;;;;;5028553;28;20495;-51
2021/12/06 08:58:53;;;;;;;96.95;44.33;;;2.20;99.90;;;;;;5011417;28;20500;-48
2021/12/06 09:01:20;;;;;;;79.28;39.58;;;2.20;99.90;;;;;;5028759;28;20049;-62
2021/12/06 09:03:47;;;;;;;88.93;41.75;;;2.20;99.90;;;;;;5041220;28;20839;-62
2021/12/06 09:06:13;;;;;;;95.15;44.58;;;2.10;99.90;;;;;;5025162;28;20075;-62
2021/12/06 09:08:41;;;;;;;101.15;45.88;;;2.20;99.90;;;;;;5029045;28;20487;-60
2021/12/06 09:11:09;;;;;;;112.63;51.72;;;2.20;99.90;;;;;;5020121;28;20060;-49
2021/12/06 09:13:36;;;;;;;92.68;41.92;;;2.30;99.90;;;;;;4998803;28;20037;-62
2021/12/06 09:16:05;;;;;;;107.38;48.63;;;2.20;99.90;;;;;;4981524;28;20064;-62
2021/12/06 09:18:34;;;;;;;92.88;43.80;;;2.30;99.90;;;;;;4994186;28;20038;-62
2021/12/06 09:21:04;;;;;;;99.75;47.85;;;2.30;99.90;;;;;;5007663;28;20085;-62
2021/12/06 09:23:31;;;;;;;102.43;48.00;;;2.30;99.90;;;;;;4975552;28;20046;-62
2021/12/06 09:25:57;;;;;;;98.70;48.00;;;2.40;99.90;;;;;;4992369;28;20714;-64
2021/12/06 09:28:25;;;;;;;98.75;47.00;;;2.40;99.90;;;;;;4977920;28;20064;-62
2021/12/06 09:30:52;;;;;;;85.50;42.97;;;2.40;99.90;;;;;;5010656;28;20097;-62
2021/12/06 09:33:18;;;;;;;78.35;41.08;;;2.40;99.90;;;;;;4989451;28;20050;-49
2021/12/06 09:35:47;;;;;;;86.43;43.58;;;2.40;99.90;;;;;;4994410;28;20135;-49
2021/12/06 09:38:17;;;;;;;90.05;45.85;;;2.40;99.90;;;;;;5013927;28;20065;-62
2021/12/06 09:40:47;;;;;;;69.50;34.97;;;2.50;99.90;;;;;;5003140;28;20485;-52
2021/12/06 09:43:14;;;;;;;71.65;34.40;;;2.60;99.90;;;;;;5006929;28;20049;-49
2021/12/06 09:45:42;;;;;;;61.97;33.03;;;2.50;99.90;;;;;;4993020;28;20049;-49
2021/12/06 09:48:12;;;;;;;68.57;35.20;;;2.60;99.90;;;;;;4997833;28;20516;-49
2021/12/06 09:50:49;;;;;;;67.75;33.85;;;2.60;99.90;;;;;;5032259;28;20053;-62
2021/12/06 09:53:19;;;;;;;62.63;32.92;;;2.60;99.90;;;;;;4998701;28;20088;-63
2021/12/06 09:55:48;;;;;;;66.97;33.92;;;2.60;99.90;;;;;;5012097;28;20115;-51
2021/12/06 09:58:14;;;;;;;57.40;31.02;;;2.70;99.90;;;;;;4995082;28;20104;-52
2021/12/06 10:00:45;;;;;;;57.58;30.88;;;2.70;99.90;;;;;;5001601;28;20048;-49
2021/12/06 10:03:15;;;;;;;60.63;33.42;;;2.70;99.90;;;;;;5005963;28;20092;-51
2021/12/06 10:05:42;;;;;;;56.05;31.77;;;2.70;99.90;;;;;;4959726;28;20397;-53
2021/12/06 10:08:08;;;;;;;49.85;28.80;;;2.70;99.90;;;;;;4993576;28;20505;-63
2021/12/06 10:10:35;;;;;;;49.70;29.45;;;2.80;99.90;;;;;;5018455;28;20076;-51
2021/12/06 10:13:01;;;;;;;40.80;24.48;;;2.80;99.90;;;;;;4976120;28;20503;-63
2021/12/06 10:15:29;;;;;;;36.53;22.80;;;2.80;99.90;;;;;;5009127;28;20049;-63
2021/12/06 10:17:58;;;;;;;40.33;23.17;;;2.80;99.90;;;;;;5012701;28;20092;-63
2021/12/06 10:20:26;;;;;;;42.60;23.33;;;2.90;99.90;;;;;;5011460;28;20086;-63
2021/12/06 10:22:54;;;;;;;42.03;24.67;;;2.80;99.90;;;;;;5018684;28;20046;-53
2021/12/06 10:25:33;;;;;;;38.03;23.52;;;2.80;99.90;;;;;;4983799;28;20126;-51
2021/12/06 10:28:05;;;;;;;37.20;23.48;;;2.80;99.90;;;;;;5000019;28;20408;-51
2021/12/06 10:30:34;;;;;;;37.92;22.98;;;2.80;99.90;;;;;;4976468;28;20049;-63
2021/12/06 10:33:08;;;;;;;38.17;24.73;;;2.80;99.90;;;;;;5011068;28;20107;-51
2021/12/06 10:35:35;;;;;;;39.55;23.08;;;2.80;99.90;;;;;;5012186;28;20560;-47
2021/12/06 10:38:01;;;;;;;41.22;23.25;;;2.80;99.90;;;;;;5012426;28;20056;-48
2021/12/06 10:40:35;;;;;;;35.50;23.33;;;2.90;99.90;;;;;;5010147;28;20496;-54
2021/12/06 10:43:03;;;;;;;42.17;23.80;;;2.90;99.90;;;;;;4985192;28;20046;-62
2021/12/06 10:45:50;;;;;;;36.83;23.45;;;2.90;99.90;;;;;;5010281;28;20103;-62
2021/12/06 10:48:21;;;;;;;39.17;25.67;;;3.00;99.90;;;;;;5012123;28;20053;-62
2021/12/06 10:50:53;;;;;;;36.65;24.17;;;3.00;99.90;;;;;;5012488;28;20160;-53
2021/12/06 10:53:23;;;;;;;40.60;22.95;;;3.00;99.90;;;;;;4979016;28;20050;-52
2021/12/06 10:55:52;;;;;;;36.63;22.83;;;3.00;99.90;;;;;;4992107;28;20136;-48
2021/12/06 10:58:22;;;;;;;37.78;22.65;;;2.90;99.90;;;;;;4975651;28;20494;-48
2021/12/06 11:00:50;;;;;;;38.15;23.35;;;2.90;99.90;;;;;;5011887;28;20103;-50
2021/12/06 11:03:25;;;;;;;38.78;23.17;;;3.00;99.90;;;;;;4976600;28;20092;-48
2021/12/06 11:05:57;;;;;;;37.60;23.15;;;3.00;99.90;;;;;;4992680;28;20038;-50
2021/12/06 11:08:23;;;;;;;35.67;22.13;;;3.00;99.90;;;;;;5005425;28;20056;-50
2021/12/06 11:11:02;;;;;;;36.83;21.75;;;3.00;99.90;;;;;;5009567;28;20187;-48
2021/12/06 11:13:31;;;;;;;37.75;22.48;;;3.10;99.90;;;;;;4991788;28;20373;-49
2021/12/06 11:16:04;;;;;;;38.10;21.65;;;3.10;99.90;;;;;;4992414;28;20092;-48
2021/12/06 11:19:02;;;;;;;41.95;24.25;;;3.20;99.90;;;;;;4990504;28;20054;-62
2021/12/06 11:21:50;;;;;;;37.53;22.23;;;3.20;99.90;;;;;;5001120;28;20062;-62
2021/12/06 11:24:31;;;;;;;41.10;25.02;;;3.10;99.90;;;;;;5008154;28;20049;-62
2021/12/06 11:27:25;;;;;;;39.60;23.27;;;3.20;99.90;;;;;;4991886;28;20056;-62
2021/12/06 11:30:03;;;;;;;38.28;22.30;;;3.30;99.90;;;;;;4975646;28;20045;-62
2021/12/06 11:32:31;;;;;;;37.75;23.38;;;3.30;99.90;;;;;;5008674;28;20049;-62
2021/12/06 11:35:03;;;;;;;37.72;23.33;;;3.30;99.90;;;;;;5005919;28;20058;-62
2021/12/06 11:37:39;;;;;;;43.53;23.98;;;3.40;99.90;;;;;;4997334;28;20081;-62
2021/12/06 11:40:14;;;;;;;39.92;23.25;;;3.40;99.90;;;;;;4999357;28;20099;-62
2021/12/06 11:43:02;;;;;;;34.08;22.17;;;3.50;99.90;;;;;;4994017;28;20046;-52
2021/12/06 11:45:55;;;;;;;34.42;20.98;;;3.50;99.90;;;;;;5009065;28;20298;-52
2021/12/06 11:48:29;;;;;;;39.95;21.45;;;3.50;99.90;;;;;;4973186;28;20081;-62
2021/12/06 11:50:58;;;;;;;39.08;22.48;;;3.60;99.90;;;;;;5009538;28;20057;-49
2021/12/06 11:53:30;;;;;;;34.25;22.58;;;3.60;99.90;;;;;;4991792;28;20054;-49
2021/12/06 11:56:02;;;;;;;34.92;21.33;;;3.60;99.90;;;;;;5009326;28;20381;-48
2021/12/06 11:58:33;;;;;;;;;;;3.60;99.90;;;;;;5002388;28;20459;-61
2021/12/06 12:01:16;;;;;;;33.80;20.38;;;3.60;99.90;;;;;;4980393;28;19917;-47
2021/12/06 12:03:47;;;;;;;39.20;21.67;;;3.60;99.90;;;;;;5009646;28;20061;-52
2021/12/06 12:06:35;;;;;;;39.58;22.23;;;3.60;99.90;;;;;;4992088;28;20098;-52
2021/12/06 12:09:04;;;;;;;39.22;22.33;;;3.60;99.90;;;;;;5019609;28;20037;-48
2021/12/06 12:11:31;;;;;;;37.70;23.00;;;3.60;99.90;;;;;;4987323;28;20053;-52
2021/12/06 12:13:58;;;;;;;43.47;25.80;;;3.60;99.90;;;;;;5000231;28;20061;-50
2021/12/06 12:16:24;;;;;;;46.67;24.45;;;3.60;99.90;;;;;;4989421;28;20133;-48
2021/12/06 12:18:51;;;;;;;46.92;25.35;;;3.50;99.90;;;;;;5004489;28;20065;-62
2021/12/06 12:21:17;;;;;;;41.38;24.52;;;3.50;99.90;;;;;;4998176;28;20103;-50
2021/12/06 12:23:43;;;;;;;42.40;24.30;;;3.50;99.90;;;;;;4972540;28;20292;-49
2021/12/06 12:26:19;;;;;;;43.45;23.23;;;3.50;99.90;;;;;;5002889;28;20487;-48
2021/12/06 12:29:00;;;;;;;42.50;25.05;;;3.50;99.90;;;;;;4991545;28;20038;-48
2021/12/06 12:31:30;;;;;;;42.50;25.30;;;3.50;99.90;;;;;;5008469;28;20041;-50
2021/12/06 12:33:57;;;;;;;46.10;24.40;;;3.60;99.90;;;;;;4990322;28;20042;-49
2021/12/06 12:36:24;;;;;;;44.30;25.70;;;3.60;99.90;;;;;;4989322;28;20053;-62
2021/12/06 12:38:54;;;;;;;45.90;27.75;;;3.60;99.90;;;;;;4992465;28;20050;-61
2021/12/06 12:41:23;;;;;;;46.42;27.70;;;3.60;99.90;;;;;;4949508;28;20393;-50
2021/12/06 12:43:53;;;;;;;52.95;29.15;;;3.60;99.90;;;;;;4991486;28;20046;-61
2021/12/06 12:46:31;;;;;;;46.28;27.27;;;3.60;99.90;;;;;;4985014;28;20045;-50
2021/12/06 12:49:01;;;;;;;52.13;29.58;;;3.60;99.90;;;;;;5007013;28;20052;-48
2021/12/06 12:51:35;;;;;;;59.17;32.90;;;3.60;99.90;;;;;;5001479;28;20045;-61
2021/12/06 12:54:09;;;;;;;66.15;33.05;;;3.60;99.90;;;;;;4996828;28;20076;-51
2021/12/06 12:56:53;;;;;;;59.72;34.03;;;3.60;99.90;;;;;;4978403;28;20089;-48
2021/12/06 12:59:33;;;;;;;66.63;35.05;;;3.60;99.90;;;;;;4975677;28;20050;-62
2021/12/06 13:02:30;;;;;;;62.00;34.13;;;3.60;99.90;;;;;;4992949;28;20046;-59
2021/12/06 13:04:59;;;;;;;62.65;34.67;;;3.60;99.90;;;;;;4992581;28;20038;-54